METAR Data
IDs: Format: Raw Decoded Include TAF

Data at: 1355 UTC 21 Apr 2021

Region: TOP
KATL 211352Z 32016KT 10SM FEW035 13/04 A3000 RMK AO2 SLP156 T01330044

KBOS 211254Z 20012KT 10SM SCT080 SCT250 17/09 A2977 RMK AO2 SLP079 T01670094

KBWI 211254Z 22010G20KT 10SM SCT110 SCT250 17/08 A2966 RMK AO2 SLP044 T01720078

KCLE 211351Z 35012KT 10SM SCT025 BKN034 OVC050 01/M04 A2998 RMK AO2 SLP177 T00061039

KCLT 211352Z 24008KT 10SM FEW060 19/10 A2982 RMK AO2 SLP093 T01940100

KCVG 211341Z 29007KT 10SM SCT011 BKN050 01/M02 A3012 RMK AO2 T00061022

KDCA 211352Z 21012G19KT 10SM FEW080 BKN140 OVC250 18/09 A2967 RMK AO2 SLP048 T01780094

KDEN 211353Z 08011KT 6SM -SN FEW011 OVC029 M03/M06 A3019 RMK AO2 SLP243 P0000 T10281056

KDFW 211353Z 09003KT 10SM FEW100 FEW250 08/M01 A3038 RMK AO2 SLP287 T00781006

KDTW 211253Z 32012KT 10SM FEW030 FEW140 M01/M06 A3004 RMK AO2 SLP181 T10111061

KEWR 211351Z 19013KT 10SM FEW080 SCT110 BKN150 19/07 A2966 RMK AO2 SLP044 T01890072

KFLL 211253Z 25004KT 10SM SCT027 BKN060 BKN100 BKN250 25/22 A3000 RMK AO2 SLP157 T02500217

KIAD 211352Z 20009KT 10SM SCT050 BKN130 BKN160 OVC230 16/08 A2966 RMK AO2 SLP042 T01610083

KIAH 211353Z 02014KT 10SM FEW250 11/01 A3030 RMK AO2 SLP259 T01060011

KJFK 211351Z 18019G25KT 10SM -RA SCT045 SCT070 BKN090 13/09 A2971 RMK AO2 PK WND 19026/1257 RAB01E11B40 SLP059 P0000 T01280089

KLAS 211256Z 21016G32KT 10SM BKN250 19/M08 A2961 RMK AO2 PK WND 22041/1227 SLP005 T01941083

KLAX 211353Z 12006KT 9SM FEW019 BKN050 14/09 A2989 RMK AO2 SLP121 T01440094 $

KLGA 211351Z 17010KT 10SM -RA FEW046 BKN080 BKN100 14/09 A2968 RMK AO2 RAB1254E1256B42 SLP050 P0001 T01390089

KMCO 211353Z 31007KT 10SM SCT016 BKN065 23/19 A3000 RMK AO2 SLP157 T02330189

KMDW 211353Z 00000KT 10SM FEW046 BKN060 BKN075 BKN250 04/M02 A3010 RMK AO2 SLP203 T00391017

KMEM 211254Z VRB04KT 10SM FEW016 FEW025 05/01 A3028 RMK AO2 SLP256 T00500011 $

KMIA 211253Z VRB03KT 10SM BKN022 OVC060 26/21 A3000 RMK AO2 SLP159 T02610206

KMSP 211353Z 33012KT 10SM OVC065 01/M09 A3019 RMK AO2 SNE1254 SLP233 P0000 T00061089

KORD 211351Z 28004KT 10SM FEW070 SCT100 SCT250 04/M02 A3009 RMK AO2 SLP194 T00441017

KPDX 211353Z 00000KT 10SM FEW250 08/02 A3010 RMK AO2 SLP192 T00830017

KPHL 211254Z 21011KT 10SM -RA BKN100 BKN120 16/08 A2969 RMK AO2 RAB46 SLP052 P0000 T01610083

KPHX 211351Z 11009KT 10SM FEW250 19/M07 A2978 RMK AO2 SLP069 T01941072 $

KPIT 211251Z 33014KT 8SM -SN FEW008 BKN012 OVC018 00/M02 A2989 RMK AO2 SNE21B44 SLP138 P0001 T00001017

KSAN 211351Z 23007KT 10SM -RA BKN017 OVC035 15/10 A2994 RMK AO2 RAB13 SLP136 P0000 T01500100

KSEA 211353Z 16003KT 10SM FEW250 09/03 A3011 RMK AO2 SLP201 T00940033

KSFO 211256Z 22004KT 10SM FEW008 BKN013 12/07 A2986 RMK AO2 SLP111 T01170072 $

KSLC 211254Z 09007KT 10SM FEW090 BKN110 BKN200 09/M07 A2991 RMK AO2 SLP103 T00891067

KSTL 211351Z 26008KT 10SM FEW100 06/M02 A3024 RMK AO2 SLP246 T00561022

KTPA 211353Z 34008KT 10SM FEW020 BKN065 24/18 A3001 RMK AO2 SLP163 T02390178